sensor_id;sensor_type;location;lat;lon;timestamp;pressure;altitude;pressure_sealevel;temperature;humidity
61035;BME280;46916;40.564;-7.958;2024-02-23T00:00:55;97368.69;;;9.94;82.31
61035;BME280;46916;40.564;-7.958;2024-02-23T00:02:56;97375.00;;;9.91;82.75
61035;BME280;46916;40.564;-7.958;2024-02-23T00:04:58;97364.00;;;9.88;83.53
61035;BME280;46916;40.564;-7.958;2024-02-23T00:06:58;97350.63;;;9.91;83.82
61035;BME280;46916;40.564;-7.958;2024-02-23T00:08:59;97344.97;;;9.86;83.24
61035;BME280;46916;40.564;-7.958;2024-02-23T00:11:00;97333.09;;;9.82;82.91
61035;BME280;46916;40.564;-7.958;2024-02-23T00:13:00;97347.13;;;9.81;82.66
61035;BME280;46916;40.564;-7.958;2024-02-23T00:15:01;97347.91;;;9.72;83.05
61035;BME280;46916;40.564;-7.958;2024-02-23T00:17:02;97356.00;;;9.68;83.91
61035;BME280;46916;40.564;-7.958;2024-02-23T00:19:03;97358.59;;;9.68;84.10
61035;BME280;46916;40.564;-7.958;2024-02-23T00:21:03;97367.41;;;9.67;84.27
61035;BME280;46916;40.564;-7.958;2024-02-23T00:23:04;97356.69;;;9.71;84.81
61035;BME280;46916;40.564;-7.958;2024-02-23T00:25:05;97357.97;;;9.76;84.94
61035;BME280;46916;40.564;-7.958;2024-02-23T00:27:05;97352.63;;;9.78;84.09
61035;BME280;46916;40.564;-7.958;2024-02-23T00:29:06;97354.78;;;9.73;85.22
61035;BME280;46916;40.564;-7.958;2024-02-23T00:31:07;97357.03;;;9.77;85.04
61035;BME280;46916;40.564;-7.958;2024-02-23T00:33:07;97358.91;;;9.75;85.31
61035;BME280;46916;40.564;-7.958;2024-02-23T00:35:08;97359.63;;;9.77;85.78
61035;BME280;46916;40.564;-7.958;2024-02-23T00:37:08;97362.84;;;9.81;85.69
61035;BME280;46916;40.564;-7.958;2024-02-23T00:39:09;97359.00;;;9.85;85.98
61035;BME280;46916;40.564;-7.958;2024-02-23T00:41:09;97356.16;;;9.88;85.10
61035;BME280;46916;40.564;-7.958;2024-02-23T00:43:10;97368.06;;;9.81;85.46
61035;BME280;46916;40.564;-7.958;2024-02-23T00:45:11;97366.97;;;9.83;86.72
61035;BME280;46916;40.564;-7.958;2024-02-23T00:47:11;97361.72;;;9.83;88.27
61035;BME280;46916;40.564;-7.958;2024-02-23T00:49:12;97376.97;;;9.78;90.05
61035;BME280;46916;40.564;-7.958;2024-02-23T00:51:12;97384.13;;;9.76;90.26
61035;BME280;46916;40.564;-7.958;2024-02-23T00:53:13;97375.00;;;9.71;89.75
61035;BME280;46916;40.564;-7.958;2024-02-23T00:55:13;97370.66;;;9.60;91.16
61035;BME280;46916;40.564;-7.958;2024-02-23T00:57:14;97368.97;;;9.59;91.44
61035;BME280;46916;40.564;-7.958;2024-02-23T00:59:16;97356.88;;;9.58;90.84
61035;BME280;46916;40.564;-7.958;2024-02-23T01:01:16;97342.13;;;9.57;91.56
61035;BME280;46916;40.564;-7.958;2024-02-23T01:03:17;97341.06;;;9.59;91.36
61035;BME280;46916;40.564;-7.958;2024-02-23T01:05:17;97330.47;;;9.61;91.41
61035;BME280;46916;40.564;-7.958;2024-02-23T01:07:18;97324.41;;;9.60;91.16
61035;BME280;46916;40.564;-7.958;2024-02-23T01:09:18;97318.38;;;9.60;90.74
61035;BME280;46916;40.564;-7.958;2024-02-23T01:11:21;97322.63;;;9.61;90.67
61035;BME280;46916;40.564;-7.958;2024-02-23T01:13:21;97317.25;;;9.62;91.44
61035;BME280;46916;40.564;-7.958;2024-02-23T01:15:22;97315.47;;;9.63;91.56
61035;BME280;46916;40.564;-7.958;2024-02-23T01:17:22;97300.75;;;9.62;91.36
61035;BME280;46916;40.564;-7.958;2024-02-23T01:19:23;97302.34;;;9.53;92.29
61035;BME280;46916;40.564;-7.958;2024-02-23T01:21:24;97306.88;;;9.51;92.67
61035;BME280;46916;40.564;-7.958;2024-02-23T01:23:24;97301.44;;;9.43;92.34
61035;BME280;46916;40.564;-7.958;2024-02-23T01:25:25;97309.53;;;9.40;92.35
61035;BME280;46916;40.564;-7.958;2024-02-23T01:27:25;97305.50;;;9.36;92.02
61035;BME280;46916;40.564;-7.958;2024-02-23T01:29:26;97305.41;;;9.26;92.56
61035;BME280;46916;40.564;-7.958;2024-02-23T01:31:27;97312.44;;;9.26;92.36
61035;BME280;46916;40.564;-7.958;2024-02-23T01:33:27;97319.78;;;9.32;92.21
61035;BME280;46916;40.564;-7.958;2024-02-23T01:35:28;97319.28;;;9.38;92.34
61035;BME280;46916;40.564;-7.958;2024-02-23T01:37:29;97315.25;;;9.34;92.99
61035;BME280;46916;40.564;-7.958;2024-02-23T01:39:30;97320.47;;;9.34;93.57
61035;BME280;46916;40.564;-7.958;2024-02-23T01:41:30;97318.69;;;9.34;93.54
61035;BME280;46916;40.564;-7.958;2024-02-23T01:43:31;97316.56;;;9.39;94.25
61035;BME280;46916;40.564;-7.958;2024-02-23T01:45:31;97315.22;;;9.45;93.94
61035;BME280;46916;40.564;-7.958;2024-02-23T01:47:32;97321.72;;;9.51;93.47
61035;BME280;46916;40.564;-7.958;2024-02-23T01:49:33;97332.75;;;9.54;93.44
61035;BME280;46916;40.564;-7.958;2024-02-23T01:51:34;97335.94;;;9.58;93.69
61035;BME280;46916;40.564;-7.958;2024-02-23T01:53:35;97340.94;;;9.61;93.90
61035;BME280;46916;40.564;-7.958;2024-02-23T01:55:36;97337.59;;;9.59;93.96
61035;BME280;46916;40.564;-7.958;2024-02-23T01:57:37;97344.16;;;9.53;94.30
61035;BME280;46916;40.564;-7.958;2024-02-23T01:59:38;97335.06;;;9.48;95.46
61035;BME280;46916;40.564;-7.958;2024-02-23T02:01:38;97337.91;;;9.45;95.71
61035;BME280;46916;40.564;-7.958;2024-02-23T02:03:39;97335.53;;;9.41;95.60
61035;BME280;46916;40.564;-7.958;2024-02-23T02:05:40;97336.63;;;9.39;96.44
61035;BME280;46916;40.564;-7.958;2024-02-23T02:07:41;97338.53;;;9.37;96.86
61035;BME280;46916;40.564;-7.958;2024-02-23T02:09:45;97341.28;;;9.35;97.09
61035;BME280;46916;40.564;-7.958;2024-02-23T02:11:48;97361.38;;;9.35;97.62
61035;BME280;46916;40.564;-7.958;2024-02-23T02:13:49;97358.75;;;9.35;97.84
61035;BME280;46916;40.564;-7.958;2024-02-23T02:15:49;97346.50;;;9.35;97.79
61035;BME280;46916;40.564;-7.958;2024-02-23T02:17:50;97342.94;;;9.36;97.80
61035;BME280;46916;40.564;-7.958;2024-02-23T02:19:50;97336.63;;;9.39;98.18
61035;BME280;46916;40.564;-7.958;2024-02-23T02:21:52;97322.03;;;9.36;98.61
61035;BME280;46916;40.564;-7.958;2024-02-23T02:23:52;97305.50;;;9.36;98.30
61035;BME280;46916;40.564;-7.958;2024-02-23T02:25:56;97300.28;;;9.36;97.56
61035;BME280;46916;40.564;-7.958;2024-02-23T02:27:57;97299.56;;;9.34;97.48
61035;BME280;46916;40.564;-7.958;2024-02-23T02:29:57;97309.44;;;9.30;97.88
61035;BME280;46916;40.564;-7.958;2024-02-23T02:31:58;97305.53;;;9.25;98.69
61035;BME280;46916;40.564;-7.958;2024-02-23T02:33:59;97285.03;;;9.20;98.99
61035;BME280;46916;40.564;-7.958;2024-02-23T02:35:59;97288.69;;;9.17;99.22
61035;BME280;46916;40.564;-7.958;2024-02-23T02:38:00;97281.13;;;9.14;99.47
61035;BME280;46916;40.564;-7.958;2024-02-23T02:40:00;97273.28;;;9.14;99.52
61035;BME280;46916;40.564;-7.958;2024-02-23T02:42:01;97265.69;;;9.11;99.35
61035;BME280;46916;40.564;-7.958;2024-02-23T02:44:01;97255.88;;;9.04;99.24
61035;BME280;46916;40.564;-7.958;2024-02-23T02:46:02;97245.84;;;8.77;100.00
61035;BME280;46916;40.564;-7.958;2024-02-23T02:48:03;97253.09;;;8.73;100.00
61035;BME280;46916;40.564;-7.958;2024-02-23T02:50:04;97263.81;;;8.70;100.00
61035;BME280;46916;40.564;-7.958;2024-02-23T02:52:06;97274.34;;;8.68;100.00
61035;BME280;46916;40.564;-7.958;2024-02-23T02:54:08;97265.31;;;8.73;100.00
61035;BME280;46916;40.564;-7.958;2024-02-23T02:56:09;97265.47;;;8.71;100.00
61035;BME280;46916;40.564;-7.958;2024-02-23T02:58:13;97268.91;;;8.60;100.00
61035;BME280;46916;40.564;-7.958;2024-02-23T03:00:14;97267.63;;;8.55;100.00
61035;BME280;46916;40.564;-7.958;2024-02-23T03:02:14;97270.09;;;8.56;100.00
61035;BME280;46916;40.564;-7.958;2024-02-23T03:04:15;97272.34;;;8.61;100.00
61035;BME280;46916;40.564;-7.958;2024-02-23T03:06:15;97263.31;;;8.65;100.00
61035;BME280;46916;40.564;-7.958;2024-02-23T03:08:16;97253.84;;;8.64;100.00
61035;BME280;46916;40.564;-7.958;2024-02-23T03:10:16;97256.34;;;8.65;100.00
61035;BME280;46916;40.564;-7.958;2024-02-23T03:12:17;97262.13;;;8.69;100.00
61035;BME280;46916;40.564;-7.958;2024-02-23T03:14:18;97266.88;;;8.75;100.00
61035;BME280;46916;40.564;-7.958;2024-02-23T03:16:21;97270.06;;;8.79;100.00
61035;BME280;46916;40.564;-7.958;2024-02-23T03:18:23;97266.25;;;8.83;100.00
61035;BME280;46916;40.564;-7.958;2024-02-23T03:20:24;97268.03;;;8.82;100.00
61035;BME280;46916;40.564;-7.958;2024-02-23T03:22:24;97248.94;;;8.82;100.00
61035;BME280;46916;40.564;-7.958;2024-02-23T03:24:25;97256.50;;;8.85;100.00
61035;BME280;46916;40.564;-7.958;2024-02-23T03:26:25;97256.13;;;8.89;100.00
61035;BME280;46916;40.564;-7.958;2024-02-23T03:28:26;97238.44;;;8.93;100.00
61035;BME280;46916;40.564;-7.958;2024-02-23T03:30:27;97227.53;;;8.88;98.92
61035;BME280;46916;40.564;-7.958;2024-02-23T03:32:28;97226.84;;;8.86;99.04
61035;BME280;46916;40.564;-7.958;2024-02-23T03:34:28;97223.28;;;8.87;99.55
61035;BME280;46916;40.564;-7.958;2024-02-23T03:36:28;97221.34;;;8.89;99.30
61035;BME280;46916;40.564;-7.958;2024-02-23T03:38:29;97219.50;;;8.80;99.56
61035;BME280;46916;40.564;-7.958;2024-02-23T03:40:30;97220.31;;;8.80;100.00
61035;BME280;46916;40.564;-7.958;2024-02-23T03:42:31;97216.75;;;8.81;100.00
61035;BME280;46916;40.564;-7.958;2024-02-23T03:44:31;97210.97;;;8.78;100.00
61035;BME280;46916;40.564;-7.958;2024-02-23T03:46:32;97215.59;;;8.74;100.00
61035;BME280;46916;40.564;-7.958;2024-02-23T03:48:32;97229.03;;;8.70;100.00
61035;BME280;46916;40.564;-7.958;2024-02-23T03:50:33;97222.75;;;8.61;100.00
61035;BME280;46916;40.564;-7.958;2024-02-23T03:52:33;97207.72;;;8.53;100.00
61035;BME280;46916;40.564;-7.958;2024-02-23T03:54:34;97222.28;;;8.56;100.00
61035;BME280;46916;40.564;-7.958;2024-02-23T03:56:40;97219.56;;;8.57;100.00
61035;BME280;46916;40.564;-7.958;2024-02-23T03:58:41;97207.94;;;8.61;100.00
61035;BME280;46916;40.564;-7.958;2024-02-23T04:00:43;97204.22;;;8.64;100.00
61035;BME280;46916;40.564;-7.958;2024-02-23T04:02:43;97213.84;;;8.63;100.00
61035;BME280;46916;40.564;-7.958;2024-02-23T04:04:44;97215.50;;;8.64;100.00
61035;BME280;46916;40.564;-7.958;2024-02-23T04:06:44;97212.50;;;8.69;100.00
61035;BME280;46916;40.564;-7.958;2024-02-23T04:08:45;97211.59;;;8.70;100.00
61035;BME280;46916;40.564;-7.958;2024-02-23T04:10:46;97205.16;;;8.74;100.00
61035;BME280;46916;40.564;-7.958;2024-02-23T04:12:46;97209.44;;;8.64;100.00
61035;BME280;46916;40.564;-7.958;2024-02-23T04:14:47;97229.66;;;8.62;100.00
61035;BME280;46916;40.564;-7.958;2024-02-23T04:16:48;97221.69;;;8.63;100.00
61035;BME280;46916;40.564;-7.958;2024-02-23T04:18:48;97222.13;;;8.68;100.00
61035;BME280;46916;40.564;-7.958;2024-02-23T04:20:49;97196.75;;;8.71;100.00
61035;BME280;46916;40.564;-7.958;2024-02-23T04:22:49;97229.72;;;8.72;100.00
61035;BME280;46916;40.564;-7.958;2024-02-23T04:24:50;97228.78;;;8.73;100.00
61035;BME280;46916;40.564;-7.958;2024-02-23T04:26:50;97222.63;;;8.74;100.00
61035;BME280;46916;40.564;-7.958;2024-02-23T04:28:51;97206.94;;;8.74;100.00
61035;BME280;46916;40.564;-7.958;2024-02-23T04:30:51;97219.72;;;8.77;100.00
61035;BME280;46916;40.564;-7.958;2024-02-23T04:32:52;97200.53;;;8.78;100.00
61035;BME280;46916;40.564;-7.958;2024-02-23T04:34:53;97208.59;;;8.75;100.00
61035;BME280;46916;40.564;-7.958;2024-02-23T04:36:53;97208.97;;;8.70;100.00
61035;BME280;46916;40.564;-7.958;2024-02-23T04:38:54;97212.41;;;8.71;100.00
61035;BME280;46916;40.564;-7.958;2024-02-23T04:40:55;97208.59;;;8.75;100.00
61035;BME280;46916;40.564;-7.958;2024-02-23T04:42:56;97200.53;;;8.78;100.00
61035;BME280;46916;40.564;-7.958;2024-02-23T04:44:57;97201.94;;;8.82;100.00
61035;BME280;46916;40.564;-7.958;2024-02-23T04:46:58;97198.13;;;8.86;100.00
61035;BME280;46916;40.564;-7.958;2024-02-23T04:48:58;97205.69;;;8.89;100.00
61035;BME280;46916;40.564;-7.958;2024-02-23T04:50:59;97206.66;;;8.88;100.00
61035;BME280;46916;40.564;-7.958;2024-02-23T04:52:59;97205.00;;;8.87;100.00
61035;BME280;46916;40.564;-7.958;2024-02-23T04:55:00;97201.66;;;8.85;100.00
61035;BME280;46916;40.564;-7.958;2024-02-23T04:57:00;97204.34;;;8.74;100.00
61035;BME280;46916;40.564;-7.958;2024-02-23T04:59:01;97201.50;;;8.65;100.00
61035;BME280;46916;40.564;-7.958;2024-02-23T05:01:01;97199.84;;;8.64;100.00
61035;BME280;46916;40.564;-7.958;2024-02-23T05:03:03;97201.16;;;8.59;100.00
61035;BME280;46916;40.564;-7.958;2024-02-23T05:05:04;97201.78;;;8.51;100.00
61035;BME280;46916;40.564;-7.958;2024-02-23T05:07:05;97203.56;;;8.51;100.00
61035;BME280;46916;40.564;-7.958;2024-02-23T05:09:05;97212.22;;;8.51;100.00
61035;BME280;46916;40.564;-7.958;2024-02-23T05:11:09;97200.13;;;8.50;100.00
61035;BME280;46916;40.564;-7.958;2024-02-23T05:13:10;97215.78;;;8.50;100.00
61035;BME280;46916;40.564;-7.958;2024-02-23T05:15:10;97216.84;;;8.48;100.00
61035;BME280;46916;40.564;-7.958;2024-02-23T05:17:11;97216.63;;;8.51;100.00
61035;BME280;46916;40.564;-7.958;2024-02-23T05:19:12;97215.88;;;8.49;100.00
61035;BME280;46916;40.564;-7.958;2024-02-23T05:21:14;97224.09;;;8.44;100.00
61035;BME280;46916;40.564;-7.958;2024-02-23T05:23:15;97216.25;;;8.44;100.00
61035;BME280;46916;40.564;-7.958;2024-02-23T05:25:18;97220.66;;;8.43;100.00
61035;BME280;46916;40.564;-7.958;2024-02-23T05:27:19;97224.00;;;8.46;100.00
61035;BME280;46916;40.564;-7.958;2024-02-23T05:29:19;97211.25;;;8.52;100.00
61035;BME280;46916;40.564;-7.958;2024-02-23T05:31:24;97212.81;;;8.55;100.00
61035;BME280;46916;40.564;-7.958;2024-02-23T05:33:43;97213.50;;;8.57;100.00
61035;BME280;46916;40.564;-7.958;2024-02-23T05:35:43;97207.81;;;8.63;100.00
61035;BME280;46916;40.564;-7.958;2024-02-23T05:37:45;97209.81;;;8.59;100.00
61035;BME280;46916;40.564;-7.958;2024-02-23T05:39:46;97200.56;;;8.55;100.00
61035;BME280;46916;40.564;-7.958;2024-02-23T05:41:46;97199.63;;;8.56;100.00
61035;BME280;46916;40.564;-7.958;2024-02-23T05:43:47;97196.78;;;8.59;100.00
61035;BME280;46916;40.564;-7.958;2024-02-23T05:45:48;97196.91;;;8.58;100.00
61035;BME280;46916;40.564;-7.958;2024-02-23T05:47:48;97201.41;;;8.56;100.00
61035;BME280;46916;40.564;-7.958;2024-02-23T05:49:50;97193.94;;;8.51;100.00
61035;BME280;46916;40.564;-7.958;2024-02-23T05:51:50;97206.88;;;8.53;100.00
61035;BME280;46916;40.564;-7.958;2024-02-23T05:53:51;97207.81;;;8.52;100.00
61035;BME280;46916;40.564;-7.958;2024-02-23T05:55:51;97211.03;;;8.55;100.00
61035;BME280;46916;40.564;-7.958;2024-02-23T05:57:52;97211.97;;;8.54;100.00
61035;BME280;46916;40.564;-7.958;2024-02-23T05:59:53;97217.66;;;8.59;100.00
61035;BME280;46916;40.564;-7.958;2024-02-23T06:01:53;97215.75;;;8.61;100.00
61035;BME280;46916;40.564;-7.958;2024-02-23T06:03:57;97226.53;;;8.68;100.00
61035;BME280;46916;40.564;-7.958;2024-02-23T06:05:57;97215.13;;;8.69;100.00
61035;BME280;46916;40.564;-7.958;2024-02-23T06:07:58;97234.16;;;8.60;100.00
61035;BME280;46916;40.564;-7.958;2024-02-23T06:09:58;97247.31;;;8.58;100.00
61035;BME280;46916;40.564;-7.958;2024-02-23T06:11:59;97227.19;;;8.49;100.00
61035;BME280;46916;40.564;-7.958;2024-02-23T06:14:00;97209.75;;;8.38;100.00
61035;BME280;46916;40.564;-7.958;2024-02-23T06:16:01;97228.47;;;8.32;100.00
61035;BME280;46916;40.564;-7.958;2024-02-23T06:18:01;97211.41;;;8.17;100.00
61035;BME280;46916;40.564;-7.958;2024-02-23T06:20:02;97208.94;;;8.04;100.00
61035;BME280;46916;40.564;-7.958;2024-02-23T06:22:03;97204.66;;;8.03;100.00
61035;BME280;46916;40.564;-7.958;2024-02-23T06:24:04;97204.06;;;8.00;100.00
61035;BME280;46916;40.564;-7.958;2024-02-23T06:26:05;97189.50;;;7.97;100.00
61035;BME280;46916;40.564;-7.958;2024-02-23T06:28:05;97198.75;;;7.90;100.00
61035;BME280;46916;40.564;-7.958;2024-02-23T06:30:07;97205.97;;;7.86;99.51
61035;BME280;46916;40.564;-7.958;2024-02-23T06:32:07;97209.28;;;7.88;100.00
61035;BME280;46916;40.564;-7.958;2024-02-23T06:34:08;97205.38;;;7.94;99.78
61035;BME280;46916;40.564;-7.958;2024-02-23T06:36:09;97201.13;;;7.93;99.16
61035;BME280;46916;40.564;-7.958;2024-02-23T06:38:10;97197.09;;;8.00;99.64
61035;BME280;46916;40.564;-7.958;2024-02-23T06:40:10;97199.44;;;8.03;98.51
61035;BME280;46916;40.564;-7.958;2024-02-23T06:42:11;97209.41;;;8.09;98.06
61035;BME280;46916;40.564;-7.958;2024-02-23T06:44:11;97216.75;;;8.15;97.93
61035;BME280;46916;40.564;-7.958;2024-02-23T06:46:12;97227.91;;;8.17;96.22
61035;BME280;46916;40.564;-7.958;2024-02-23T06:48:12;97231.94;;;8.22;96.61
61035;BME280;46916;40.564;-7.958;2024-02-23T06:50:13;97234.41;;;8.23;95.31
61035;BME280;46916;40.564;-7.958;2024-02-23T06:52:13;97235.13;;;8.25;95.31
61035;BME280;46916;40.564;-7.958;2024-02-23T06:54:14;97238.44;;;8.27;95.62
61035;BME280;46916;40.564;-7.958;2024-02-23T06:56:15;97236.56;;;8.29;95.55
61035;BME280;46916;40.564;-7.958;2024-02-23T06:58:15;97239.84;;;8.31;95.77
61035;BME280;46916;40.564;-7.958;2024-02-23T07:00:17;97250.06;;;8.34;95.99
61035;BME280;46916;40.564;-7.958;2024-02-23T07:02:17;97255.91;;;8.38;96.16
61035;BME280;46916;40.564;-7.958;2024-02-23T07:04:18;97247.56;;;8.44;96.87
61035;BME280;46916;40.564;-7.958;2024-02-23T07:06:19;97253.16;;;8.39;98.41
61035;BME280;46916;40.564;-7.958;2024-02-23T07:08:19;97251.28;;;8.41;99.09
61035;BME280;46916;40.564;-7.958;2024-02-23T07:10:20;97254.47;;;8.45;98.87
61035;BME280;46916;40.564;-7.958;2024-02-23T07:12:22;97259.22;;;8.40;100.00
61035;BME280;46916;40.564;-7.958;2024-02-23T07:14:23;97245.53;;;8.36;100.00
61035;BME280;46916;40.564;-7.958;2024-02-23T07:16:24;97247.44;;;8.34;100.00
61035;BME280;46916;40.564;-7.958;2024-02-23T07:18:24;97243.88;;;8.35;100.00
61035;BME280;46916;40.564;-7.958;2024-02-23T07:20:25;97243.81;;;8.37;100.00
61035;BME280;46916;40.564;-7.958;2024-02-23T07:22:26;97237.50;;;8.39;100.00
61035;BME280;46916;40.564;-7.958;2024-02-23T07:24:26;97234.53;;;8.44;100.00
61035;BME280;46916;40.564;-7.958;2024-02-23T07:26:27;97233.47;;;8.47;100.00
61035;BME280;46916;40.564;-7.958;2024-02-23T07:28:29;97230.13;;;8.44;100.00
61035;BME280;46916;40.564;-7.958;2024-02-23T07:30:30;97236.22;;;8.45;100.00
61035;BME280;46916;40.564;-7.958;2024-02-23T07:32:31;97229.06;;;8.47;100.00
61035;BME280;46916;40.564;-7.958;2024-02-23T07:34:31;97236.66;;;8.50;100.00
61035;BME280;46916;40.564;-7.958;2024-02-23T07:36:32;97232.97;;;8.53;100.00
61035;BME280;46916;40.564;-7.958;2024-02-23T07:38:33;97233.56;;;8.56;100.00
61035;BME280;46916;40.564;-7.958;2024-02-23T07:40:33;97231.78;;;8.57;100.00
61035;BME280;46916;40.564;-7.958;2024-02-23T07:42:34;97235.72;;;8.51;100.00
61035;BME280;46916;40.564;-7.958;2024-02-23T07:44:38;97238.56;;;8.48;99.37
61035;BME280;46916;40.564;-7.958;2024-02-23T07:46:38;97237.84;;;8.46;99.27
61035;BME280;46916;40.564;-7.958;2024-02-23T07:48:39;97223.25;;;8.43;99.09
61035;BME280;46916;40.564;-7.958;2024-02-23T07:50:40;97240.94;;;8.51;98.89
61035;BME280;46916;40.564;-7.958;2024-02-23T07:52:41;97231.78;;;8.57;98.73
61035;BME280;46916;40.564;-7.958;2024-02-23T07:54:41;97238.53;;;8.59;98.80
61035;BME280;46916;40.564;-7.958;2024-02-23T07:56:42;97226.06;;;8.63;98.89
61035;BME280;46916;40.564;-7.958;2024-02-23T07:58:43;97234.50;;;8.66;98.43
61035;BME280;46916;40.564;-7.958;2024-02-23T08:00:43;97236.50;;;8.74;97.84
61035;BME280;46916;40.564;-7.958;2024-02-23T08:02:44;97227.84;;;8.74;96.64
61035;BME280;46916;40.564;-7.958;2024-02-23T08:04:44;97242.78;;;8.72;96.31
61035;BME280;46916;40.564;-7.958;2024-02-23T08:06:48;97257.50;;;8.73;96.98
61035;BME280;46916;40.564;-7.958;2024-02-23T08:08:48;97264.63;;;8.71;98.77
61035;BME280;46916;40.564;-7.958;2024-02-23T08:10:49;97266.28;;;8.60;100.00
61035;BME280;46916;40.564;-7.958;2024-02-23T08:12:50;97281.63;;;8.54;100.00
61035;BME280;46916;40.564;-7.958;2024-02-23T08:14:50;97291.72;;;8.47;100.00
61035;BME280;46916;40.564;-7.958;2024-02-23T08:16:53;97305.72;;;8.46;100.00
61035;BME280;46916;40.564;-7.958;2024-02-23T08:18:54;97307.38;;;8.47;100.00
61035;BME280;46916;40.564;-7.958;2024-02-23T08:20:56;97317.59;;;8.50;100.00
61035;BME280;46916;40.564;-7.958;2024-02-23T08:22:57;97327.06;;;8.51;100.00
61035;BME280;46916;40.564;-7.958;2024-02-23T08:24:58;97335.63;;;8.53;100.00
61035;BME280;46916;40.564;-7.958;2024-02-23T08:26:58;97340.81;;;8.64;100.00
61035;BME280;46916;40.564;-7.958;2024-02-23T08:28:59;97334.38;;;8.91;100.00
61035;BME280;46916;40.564;-7.958;2024-02-23T08:31:00;97330.88;;;9.13;100.00
61035;BME280;46916;40.564;-7.958;2024-02-23T08:33:00;97327.28;;;9.25;100.00
61035;BME280;46916;40.564;-7.958;2024-02-23T08:35:01;97320.03;;;9.29;100.00
61035;BME280;46916;40.564;-7.958;2024-02-23T08:37:01;97315.97;;;9.36;100.00
61035;BME280;46916;40.564;-7.958;2024-02-23T08:39:02;97318.41;;;9.49;100.00
61035;BME280;46916;40.564;-7.958;2024-02-23T08:41:04;97321.91;;;9.59;100.00
61035;BME280;46916;40.564;-7.958;2024-02-23T08:43:04;97314.41;;;9.65;100.00
61035;BME280;46916;40.564;-7.958;2024-02-23T08:45:05;97303.44;;;9.72;100.00
61035;BME280;46916;40.564;-7.958;2024-02-23T08:47:06;97296.28;;;9.74;100.00
61035;BME280;46916;40.564;-7.958;2024-02-23T08:49:07;97303.44;;;9.92;100.00
61035;BME280;46916;40.564;-7.958;2024-02-23T08:51:07;97293.44;;;10.28;99.31
61035;BME280;46916;40.564;-7.958;2024-02-23T08:53:08;97297.13;;;10.56;96.92
61035;BME280;46916;40.564;-7.958;2024-02-23T08:55:08;97294.72;;;10.74;94.52
61035;BME280;46916;40.564;-7.958;2024-02-23T08:57:09;97305.53;;;10.90;92.41
61035;BME280;46916;40.564;-7.958;2024-02-23T08:59:10;97305.00;;;11.06;91.89
61035;BME280;46916;40.564;-7.958;2024-02-23T09:01:10;97304.69;;;11.09;92.59
61035;BME280;46916;40.564;-7.958;2024-02-23T09:03:11;97303.63;;;11.12;93.13
61035;BME280;46916;40.564;-7.958;2024-02-23T09:05:12;97301.41;;;11.17;93.81
61035;BME280;46916;40.564;-7.958;2024-02-23T09:07:12;97309.41;;;11.25;93.29
61035;BME280;46916;40.564;-7.958;2024-02-23T09:09:13;97308.03;;;11.21;90.41
61035;BME280;46916;40.564;-7.958;2024-02-23T09:11:14;97315.47;;;11.16;91.79
61035;BME280;46916;40.564;-7.958;2024-02-23T09:13:15;97308.59;;;11.15;92.54
61035;BME280;46916;40.564;-7.958;2024-02-23T09:15:16;97297.28;;;11.24;92.15
61035;BME280;46916;40.564;-7.958;2024-02-23T09:17:16;97288.19;;;11.19;90.36
61035;BME280;46916;40.564;-7.958;2024-02-23T09:19:19;97291.75;;;11.18;90.34
61035;BME280;46916;40.564;-7.958;2024-02-23T09:21:20;97309.41;;;11.15;90.69
61035;BME280;46916;40.564;-7.958;2024-02-23T09:23:21;97306.75;;;11.06;90.58
61035;BME280;46916;40.564;-7.958;2024-02-23T09:25:21;97313.22;;;10.82;89.25
61035;BME280;46916;40.564;-7.958;2024-02-23T09:27:22;97323.50;;;10.64;91.59
61035;BME280;46916;40.564;-7.958;2024-02-23T09:29:22;97331.41;;;10.74;93.16
61035;BME280;46916;40.564;-7.958;2024-02-23T09:31:23;97337.78;;;10.91;95.01
61035;BME280;46916;40.564;-7.958;2024-02-23T09:33:24;97332.31;;;11.13;96.78
61035;BME280;46916;40.564;-7.958;2024-02-23T09:35:25;97334.84;;;11.44;94.97
61035;BME280;46916;40.564;-7.958;2024-02-23T09:37:25;97330.66;;;11.71;95.83
61035;BME280;46916;40.564;-7.958;2024-02-23T09:39:26;97322.00;;;11.80;94.49
61035;BME280;46916;40.564;-7.958;2024-02-23T09:41:30;97321.03;;;11.90;92.85
61035;BME280;46916;40.564;-7.958;2024-02-23T09:43:31;97320.19;;;11.90;92.22
61035;BME280;46916;40.564;-7.958;2024-02-23T09:45:33;97308.31;;;11.86;91.02
61035;BME280;46916;40.564;-7.958;2024-02-23T09:47:33;97321.00;;;11.81;90.81
61035;BME280;46916;40.564;-7.958;2024-02-23T09:49:36;97332.06;;;11.75;90.08
61035;BME280;46916;40.564;-7.958;2024-02-23T09:51:37;97326.66;;;11.66;90.49
61035;BME280;46916;40.564;-7.958;2024-02-23T09:53:39;97326.53;;;11.58;91.02
61035;BME280;46916;40.564;-7.958;2024-02-23T09:55:39;97331.81;;;11.39;89.40
61035;BME280;46916;40.564;-7.958;2024-02-23T09:57:40;97324.31;;;11.25;90.80
61035;BME280;46916;40.564;-7.958;2024-02-23T09:59:42;97331.88;;;11.18;92.31
61035;BME280;46916;40.564;-7.958;2024-02-23T10:01:43;97315.63;;;11.14;93.18
61035;BME280;46916;40.564;-7.958;2024-02-23T10:03:44;97329.00;;;11.11;92.81
61035;BME280;46916;40.564;-7.958;2024-02-23T10:05:45;97325.25;;;11.04;93.92
61035;BME280;46916;40.564;-7.958;2024-02-23T10:07:46;97311.59;;;10.91;91.97
61035;BME280;46916;40.564;-7.958;2024-02-23T10:09:48;97311.09;;;10.66;93.63
61035;BME280;46916;40.564;-7.958;2024-02-23T10:11:51;97317.81;;;10.59;93.94
61035;BME280;46916;40.564;-7.958;2024-02-23T10:13:52;97315.22;;;10.59;94.94
61035;BME280;46916;40.564;-7.958;2024-02-23T10:15:53;97314.53;;;10.57;93.98
61035;BME280;46916;40.564;-7.958;2024-02-23T10:17:53;97319.59;;;10.49;94.02
61035;BME280;46916;40.564;-7.958;2024-02-23T10:19:54;97322.16;;;10.39;94.83
61035;BME280;46916;40.564;-7.958;2024-02-23T10:21:55;97319.75;;;10.27;95.39
61035;BME280;46916;40.564;-7.958;2024-02-23T10:23:56;97317.47;;;10.12;94.10
61035;BME280;46916;40.564;-7.958;2024-02-23T10:25:56;97319.19;;;10.02;95.81
61035;BME280;46916;40.564;-7.958;2024-02-23T10:27:57;97317.53;;;10.01;96.64
61035;BME280;46916;40.564;-7.958;2024-02-23T10:29:58;97319.13;;;10.13;96.20
61035;BME280;46916;40.564;-7.958;2024-02-23T10:31:58;97323.34;;;10.26;97.66
61035;BME280;46916;40.564;-7.958;2024-02-23T10:34:01;97332.44;;;10.31;97.17